KILN/ILN METAR and TAF weather

Enter ICAO airport designator
Station Type Date Time Source
KILN METAR 2019/10/23 06:54 UTC NOAA

KILN 230654Z AUTO 25008KT 10SM CLR 07/04 A2996 RMK AO2 SLP154 T00720039


Station Type Date Time Source
KILN Decoded METAR 2019/10/23 06:54 UTC NOAA

WILMINGTON INDUSTRIAL AIRPORT , OH, United States (KILN) 39-26N 083-47W 332M
Oct 23, 2019 - 02:54 AM EDT / 2019.10.23 0654 UTC
Wind: from the WSW (250 degrees) at 9 MPH (8 KT):0
Visibility: 10 mile(s):0
Sky conditions: clear
Temperature: 45.0 F (7.2 C)
Dew Point: 39.0 F (3.9 C)
Relative Humidity: 79%
Pressure (altimeter): 29.96 in. Hg (1014 hPa)
ob: KILN 230654Z AUTO 25008KT 10SM CLR 07/04 A2996 RMK AO2 SLP154 T00720039
cycle: 7

Station Type Date Time Source
KILN TAF 2019/10/23 06:24 UTC NOAA

TAF KILN 230523Z 2306/2406 25011KT P6SM SCT050
FM230900 23009KT P6SM SKC
FM231500 23013G21KT P6SM FEW120
FM240200 19010KT P6SM SCT090 WS020/23040KT

Example: see airport list